sensor_id;sensor_type;location;lat;lon;timestamp;P1;durP1;ratioP1;P2;durP2;ratioP2
15194;SDS011;7698;42.478;23.756;2024-01-07T00:00:41;6.50;;;4.40;;
15194;SDS011;7698;42.478;23.756;2024-01-07T00:03:08;5.90;;;4.80;;
15194;SDS011;7698;42.478;23.756;2024-01-07T00:05:37;7.22;;;3.97;;
15194;SDS011;7698;42.478;23.756;2024-01-07T00:08:03;4.63;;;3.45;;
15194;SDS011;7698;42.478;23.756;2024-01-07T00:10:30;5.28;;;3.30;;
15194;SDS011;7698;42.478;23.756;2024-01-07T00:12:57;4.43;;;3.60;;
15194;SDS011;7698;42.478;23.756;2024-01-07T00:15:24;5.63;;;3.63;;
15194;SDS011;7698;42.478;23.756;2024-01-07T00:17:52;5.78;;;4.57;;
15194;SDS011;7698;42.478;23.756;2024-01-07T00:20:18;6.43;;;4.07;;
15194;SDS011;7698;42.478;23.756;2024-01-07T00:22:46;4.53;;;3.42;;
15194;SDS011;7698;42.478;23.756;2024-01-07T00:25:13;3.95;;;3.08;;
15194;SDS011;7698;42.478;23.756;2024-01-07T00:27:39;3.10;;;2.72;;
15194;SDS011;7698;42.478;23.756;2024-01-07T00:30:06;5.43;;;4.22;;
15194;SDS011;7698;42.478;23.756;2024-01-07T00:32:33;5.80;;;4.03;;
15194;SDS011;7698;42.478;23.756;2024-01-07T00:35:00;5.07;;;3.35;;
15194;SDS011;7698;42.478;23.756;2024-01-07T00:37:26;6.03;;;3.08;;
15194;SDS011;7698;42.478;23.756;2024-01-07T00:39:54;3.35;;;3.00;;
15194;SDS011;7698;42.478;23.756;2024-01-07T00:42:21;4.15;;;2.65;;
15194;SDS011;7698;42.478;23.756;2024-01-07T00:44:48;9.20;;;4.70;;
15194;SDS011;7698;42.478;23.756;2024-01-07T00:47:14;7.03;;;4.47;;
15194;SDS011;7698;42.478;23.756;2024-01-07T00:49:41;7.20;;;4.65;;
15194;SDS011;7698;42.478;23.756;2024-01-07T00:52:07;4.10;;;3.70;;
15194;SDS011;7698;42.478;23.756;2024-01-07T00:54:34;6.95;;;4.40;;
15194;SDS011;7698;42.478;23.756;2024-01-07T00:57:03;6.18;;;4.15;;
15194;SDS011;7698;42.478;23.756;2024-01-07T00:59:30;4.80;;;4.25;;
15194;SDS011;7698;42.478;23.756;2024-01-07T01:01:56;4.80;;;3.60;;
15194;SDS011;7698;42.478;23.756;2024-01-07T01:04:23;5.63;;;3.70;;
15194;SDS011;7698;42.478;23.756;2024-01-07T01:06:49;4.50;;;3.38;;
15194;SDS011;7698;42.478;23.756;2024-01-07T01:09:16;3.67;;;3.17;;
15194;SDS011;7698;42.478;23.756;2024-01-07T01:11:43;3.72;;;3.35;;
15194;SDS011;7698;42.478;23.756;2024-01-07T01:14:11;5.30;;;3.55;;
15194;SDS011;7698;42.478;23.756;2024-01-07T01:16:38;4.55;;;3.40;;
15194;SDS011;7698;42.478;23.756;2024-01-07T01:19:04;4.72;;;3.42;;
15194;SDS011;7698;42.478;23.756;2024-01-07T01:21:31;4.88;;;3.15;;
15194;SDS011;7698;42.478;23.756;2024-01-07T01:23:58;5.38;;;2.95;;
15194;SDS011;7698;42.478;23.756;2024-01-07T01:26:25;4.60;;;3.40;;
15194;SDS011;7698;42.478;23.756;2024-01-07T01:28:51;4.03;;;3.65;;
15194;SDS011;7698;42.478;23.756;2024-01-07T01:31:19;4.72;;;3.35;;
15194;SDS011;7698;42.478;23.756;2024-01-07T01:33:46;3.60;;;3.25;;
15194;SDS011;7698;42.478;23.756;2024-01-07T01:36:13;4.22;;;3.45;;
15194;SDS011;7698;42.478;23.756;2024-01-07T01:38:40;5.88;;;3.50;;
15194;SDS011;7698;42.478;23.756;2024-01-07T01:41:06;4.50;;;3.17;;
15194;SDS011;7698;42.478;23.756;2024-01-07T01:43:33;5.20;;;3.40;;
15194;SDS011;7698;42.478;23.756;2024-01-07T01:45:59;4.95;;;3.90;;
15194;SDS011;7698;42.478;23.756;2024-01-07T01:48:27;3.70;;;3.35;;
15194;SDS011;7698;42.478;23.756;2024-01-07T01:50:54;3.88;;;3.13;;
15194;SDS011;7698;42.478;23.756;2024-01-07T01:53:23;4.50;;;3.45;;
15194;SDS011;7698;42.478;23.756;2024-01-07T01:55:49;4.47;;;3.90;;
15194;SDS011;7698;42.478;23.756;2024-01-07T01:58:16;5.18;;;3.88;;
15194;SDS011;7698;42.478;23.756;2024-01-07T02:00:44;4.35;;;3.83;;
15194;SDS011;7698;42.478;23.756;2024-01-07T02:03:10;7.05;;;4.95;;
15194;SDS011;7698;42.478;23.756;2024-01-07T02:05:39;5.78;;;4.95;;
15194;SDS011;7698;42.478;23.756;2024-01-07T02:08:06;5.88;;;5.00;;
15194;SDS011;7698;42.478;23.756;2024-01-07T02:10:32;7.57;;;5.38;;
15194;SDS011;7698;42.478;23.756;2024-01-07T02:13:01;6.25;;;5.15;;
15194;SDS011;7698;42.478;23.756;2024-01-07T02:15:28;5.07;;;4.57;;
15194;SDS011;7698;42.478;23.756;2024-01-07T02:17:54;6.28;;;4.97;;
15194;SDS011;7698;42.478;23.756;2024-01-07T02:20:21;6.68;;;5.70;;
15194;SDS011;7698;42.478;23.756;2024-01-07T02:22:49;6.68;;;5.65;;
15194;SDS011;7698;42.478;23.756;2024-01-07T02:25:17;8.85;;;6.70;;
15194;SDS011;7698;42.478;23.756;2024-01-07T02:27:44;6.22;;;5.60;;
15194;SDS011;7698;42.478;23.756;2024-01-07T02:30:11;7.65;;;5.85;;
15194;SDS011;7698;42.478;23.756;2024-01-07T02:32:38;7.18;;;6.07;;
15194;SDS011;7698;42.478;23.756;2024-01-07T02:35:05;7.03;;;5.65;;
15194;SDS011;7698;42.478;23.756;2024-01-07T02:37:31;7.65;;;6.47;;
15194;SDS011;7698;42.478;23.756;2024-01-07T02:39:58;6.32;;;5.50;;
15194;SDS011;7698;42.478;23.756;2024-01-07T02:42:26;6.80;;;6.20;;
15194;SDS011;7698;42.478;23.756;2024-01-07T02:44:52;6.50;;;5.50;;
15194;SDS011;7698;42.478;23.756;2024-01-07T02:47:19;6.28;;;5.43;;
15194;SDS011;7698;42.478;23.756;2024-01-07T02:49:45;6.22;;;5.63;;
15194;SDS011;7698;42.478;23.756;2024-01-07T02:52:12;6.63;;;5.43;;
15194;SDS011;7698;42.478;23.756;2024-01-07T02:54:38;6.60;;;5.40;;
15194;SDS011;7698;42.478;23.756;2024-01-07T02:57:05;5.25;;;4.70;;
15194;SDS011;7698;42.478;23.756;2024-01-07T02:59:33;5.70;;;4.40;;
15194;SDS011;7698;42.478;23.756;2024-01-07T03:01:59;4.55;;;4.15;;
15194;SDS011;7698;42.478;23.756;2024-01-07T03:04:26;3.92;;;3.53;;
15194;SDS011;7698;42.478;23.756;2024-01-07T03:06:52;3.33;;;2.80;;
15194;SDS011;7698;42.478;23.756;2024-01-07T03:09:19;2.70;;;2.50;;
15194;SDS011;7698;42.478;23.756;2024-01-07T03:11:45;3.25;;;2.95;;
15194;SDS011;7698;42.478;23.756;2024-01-07T03:14:12;3.50;;;3.20;;
15194;SDS011;7698;42.478;23.756;2024-01-07T03:16:40;3.92;;;3.00;;
15194;SDS011;7698;42.478;23.756;2024-01-07T03:19:06;4.85;;;3.45;;
15194;SDS011;7698;42.478;23.756;2024-01-07T03:21:33;4.63;;;3.72;;
15194;SDS011;7698;42.478;23.756;2024-01-07T03:24:00;4.70;;;3.65;;
15194;SDS011;7698;42.478;23.756;2024-01-07T03:26:29;7.70;;;3.35;;
15194;SDS011;7698;42.478;23.756;2024-01-07T03:28:55;4.45;;;3.85;;
15194;SDS011;7698;42.478;23.756;2024-01-07T03:31:24;6.95;;;4.93;;
15194;SDS011;7698;42.478;23.756;2024-01-07T03:33:52;4.70;;;4.30;;
15194;SDS011;7698;42.478;23.756;2024-01-07T03:36:19;3.92;;;3.58;;
15194;SDS011;7698;42.478;23.756;2024-01-07T03:38:46;5.90;;;4.80;;
15194;SDS011;7698;42.478;23.756;2024-01-07T03:41:15;4.65;;;3.80;;
15194;SDS011;7698;42.478;23.756;2024-01-07T03:43:42;4.28;;;3.88;;
15194;SDS011;7698;42.478;23.756;2024-01-07T03:46:08;3.70;;;3.40;;
15194;SDS011;7698;42.478;23.756;2024-01-07T03:48:35;3.08;;;2.80;;
15194;SDS011;7698;42.478;23.756;2024-01-07T03:51:03;3.30;;;3.00;;
15194;SDS011;7698;42.478;23.756;2024-01-07T03:53:29;3.50;;;2.85;;
15194;SDS011;7698;42.478;23.756;2024-01-07T03:55:56;2.15;;;2.00;;
15194;SDS011;7698;42.478;23.756;2024-01-07T03:58:23;1.95;;;1.85;;
15194;SDS011;7698;42.478;23.756;2024-01-07T04:00:49;1.98;;;1.88;;
15194;SDS011;7698;42.478;23.756;2024-01-07T04:03:16;2.97;;;2.28;;
15194;SDS011;7698;42.478;23.756;2024-01-07T04:05:42;1.88;;;1.67;;
15194;SDS011;7698;42.478;23.756;2024-01-07T04:08:11;1.63;;;1.52;;
15194;SDS011;7698;42.478;23.756;2024-01-07T04:10:40;2.55;;;2.35;;
15194;SDS011;7698;42.478;23.756;2024-01-07T04:13:07;2.55;;;2.15;;
15194;SDS011;7698;42.478;23.756;2024-01-07T04:15:34;2.45;;;2.25;;
15194;SDS011;7698;42.478;23.756;2024-01-07T04:18:00;3.35;;;3.05;;
15194;SDS011;7698;42.478;23.756;2024-01-07T04:20:27;3.47;;;3.17;;
15194;SDS011;7698;42.478;23.756;2024-01-07T04:22:53;4.53;;;3.42;;
15194;SDS011;7698;42.478;23.756;2024-01-07T04:25:21;3.63;;;3.33;;
15194;SDS011;7698;42.478;23.756;2024-01-07T04:27:48;3.45;;;3.15;;
15194;SDS011;7698;42.478;23.756;2024-01-07T04:30:14;4.25;;;3.63;;
15194;SDS011;7698;42.478;23.756;2024-01-07T04:32:41;4.28;;;3.88;;
15194;SDS011;7698;42.478;23.756;2024-01-07T04:35:07;4.10;;;3.80;;
15194;SDS011;7698;42.478;23.756;2024-01-07T04:37:34;4.57;;;3.58;;
15194;SDS011;7698;42.478;23.756;2024-01-07T04:40:01;6.30;;;3.85;;
15194;SDS011;7698;42.478;23.756;2024-01-07T04:42:29;4.95;;;4.00;;
15194;SDS011;7698;42.478;23.756;2024-01-07T04:44:56;4.63;;;4.22;;
15194;SDS011;7698;42.478;23.756;2024-01-07T04:47:26;4.90;;;4.38;;
15194;SDS011;7698;42.478;23.756;2024-01-07T04:49:53;5.10;;;4.60;;
15194;SDS011;7698;42.478;23.756;2024-01-07T04:52:19;7.20;;;6.50;;
15194;SDS011;7698;42.478;23.756;2024-01-07T04:54:46;8.40;;;7.60;;
15194;SDS011;7698;42.478;23.756;2024-01-07T04:57:12;8.88;;;8.07;;
15194;SDS011;7698;42.478;23.756;2024-01-07T04:59:40;9.20;;;8.20;;
15194;SDS011;7698;42.478;23.756;2024-01-07T05:02:07;9.90;;;8.90;;
15194;SDS011;7698;42.478;23.756;2024-01-07T05:04:34;10.73;;;9.30;;
15194;SDS011;7698;42.478;23.756;2024-01-07T05:07:00;8.98;;;8.07;;
15194;SDS011;7698;42.478;23.756;2024-01-07T05:09:27;9.48;;;8.65;;
15194;SDS011;7698;42.478;23.756;2024-01-07T05:11:53;9.77;;;8.73;;
15194;SDS011;7698;42.478;23.756;2024-01-07T05:14:20;8.50;;;7.70;;
15194;SDS011;7698;42.478;23.756;2024-01-07T05:16:49;9.10;;;8.25;;
15194;SDS011;7698;42.478;23.756;2024-01-07T05:19:15;8.43;;;7.63;;
15194;SDS011;7698;42.478;23.756;2024-01-07T05:21:42;9.43;;;8.50;;
15194;SDS011;7698;42.478;23.756;2024-01-07T05:24:08;9.75;;;8.80;;
15194;SDS011;7698;42.478;23.756;2024-01-07T05:26:37;9.95;;;8.75;;
15194;SDS011;7698;42.478;23.756;2024-01-07T05:29:05;9.75;;;8.75;;
15194;SDS011;7698;42.478;23.756;2024-01-07T05:31:31;10.45;;;9.43;;
15194;SDS011;7698;42.478;23.756;2024-01-07T05:33:59;10.65;;;9.40;;
15194;SDS011;7698;42.478;23.756;2024-01-07T05:36:26;10.73;;;9.63;;
15194;SDS011;7698;42.478;23.756;2024-01-07T05:38:52;11.48;;;10.38;;
15194;SDS011;7698;42.478;23.756;2024-01-07T05:41:19;12.13;;;10.93;;
15194;SDS011;7698;42.478;23.756;2024-01-07T05:43:45;10.18;;;9.25;;
15194;SDS011;7698;42.478;23.756;2024-01-07T05:46:12;11.48;;;10.38;;
15194;SDS011;7698;42.478;23.756;2024-01-07T05:48:42;8.60;;;7.80;;
15194;SDS011;7698;42.478;23.756;2024-01-07T05:51:10;8.88;;;8.00;;
15194;SDS011;7698;42.478;23.756;2024-01-07T05:53:37;9.85;;;8.85;;
15194;SDS011;7698;42.478;23.756;2024-01-07T05:56:04;9.30;;;8.35;;
15194;SDS011;7698;42.478;23.756;2024-01-07T05:58:30;16.90;;;14.82;;
15194;SDS011;7698;42.478;23.756;2024-01-07T06:00:57;12.70;;;10.82;;
15194;SDS011;7698;42.478;23.756;2024-01-07T06:03:24;16.20;;;13.98;;
15194;SDS011;7698;42.478;23.756;2024-01-07T06:05:50;10.52;;;9.43;;
15194;SDS011;7698;42.478;23.756;2024-01-07T06:08:18;10.48;;;9.40;;
15194;SDS011;7698;42.478;23.756;2024-01-07T06:10:45;8.05;;;7.25;;
15194;SDS011;7698;42.478;23.756;2024-01-07T06:13:12;8.43;;;7.63;;
15194;SDS011;7698;42.478;23.756;2024-01-07T06:15:38;9.80;;;8.80;;
15194;SDS011;7698;42.478;23.756;2024-01-07T06:18:05;9.95;;;9.05;;
15194;SDS011;7698;42.478;23.756;2024-01-07T06:20:31;10.45;;;9.50;;
15194;SDS011;7698;42.478;23.756;2024-01-07T06:22:58;9.15;;;8.30;;
15194;SDS011;7698;42.478;23.756;2024-01-07T06:25:26;8.68;;;7.97;;
15194;SDS011;7698;42.478;23.756;2024-01-07T06:27:52;8.82;;;8.13;;
15194;SDS011;7698;42.478;23.756;2024-01-07T06:30:19;7.90;;;7.28;;
15194;SDS011;7698;42.478;23.756;2024-01-07T06:32:47;11.68;;;10.48;;
15194;SDS011;7698;42.478;23.756;2024-01-07T06:35:14;13.57;;;11.65;;
15194;SDS011;7698;42.478;23.756;2024-01-07T06:37:40;8.93;;;8.02;;
15194;SDS011;7698;42.478;23.756;2024-01-07T06:40:07;9.20;;;8.30;;
15194;SDS011;7698;42.478;23.756;2024-01-07T06:42:36;8.13;;;7.43;;
15194;SDS011;7698;42.478;23.756;2024-01-07T06:45:03;7.70;;;7.10;;
15194;SDS011;7698;42.478;23.756;2024-01-07T06:47:29;7.05;;;6.45;;
15194;SDS011;7698;42.478;23.756;2024-01-07T06:49:56;8.60;;;7.80;;
15194;SDS011;7698;42.478;23.756;2024-01-07T06:52:23;11.82;;;10.63;;
15194;SDS011;7698;42.478;23.756;2024-01-07T06:54:49;14.20;;;10.93;;
15194;SDS011;7698;42.478;23.756;2024-01-07T06:57:16;11.98;;;10.73;;
15194;SDS011;7698;42.478;23.756;2024-01-07T06:59:44;13.25;;;11.52;;
15194;SDS011;7698;42.478;23.756;2024-01-07T07:02:11;12.35;;;11.05;;
15194;SDS011;7698;42.478;23.756;2024-01-07T07:04:38;12.73;;;11.40;;
15194;SDS011;7698;42.478;23.756;2024-01-07T07:07:05;12.93;;;11.75;;
15194;SDS011;7698;42.478;23.756;2024-01-07T07:09:31;10.13;;;9.20;;
15194;SDS011;7698;42.478;23.756;2024-01-07T07:11:59;10.45;;;9.43;;
15194;SDS011;7698;42.478;23.756;2024-01-07T07:14:26;10.02;;;9.00;;
15194;SDS011;7698;42.478;23.756;2024-01-07T07:16:54;11.57;;;10.48;;
15194;SDS011;7698;42.478;23.756;2024-01-07T07:19:20;11.02;;;9.88;;
15194;SDS011;7698;42.478;23.756;2024-01-07T07:21:47;12.77;;;11.57;;
15194;SDS011;7698;42.478;23.756;2024-01-07T07:24:14;14.20;;;12.70;;
15194;SDS011;7698;42.478;23.756;2024-01-07T07:26:41;13.95;;;12.55;;
15194;SDS011;7698;42.478;23.756;2024-01-07T07:29:09;13.48;;;12.27;;
15194;SDS011;7698;42.478;23.756;2024-01-07T07:31:36;12.80;;;11.50;;
15194;SDS011;7698;42.478;23.756;2024-01-07T07:34:04;18.38;;;15.73;;
15194;SDS011;7698;42.478;23.756;2024-01-07T07:36:31;14.90;;;13.25;;
15194;SDS011;7698;42.478;23.756;2024-01-07T07:38:58;12.80;;;11.38;;
15194;SDS011;7698;42.478;23.756;2024-01-07T07:41:25;10.55;;;9.43;;
15194;SDS011;7698;42.478;23.756;2024-01-07T07:43:53;10.10;;;9.10;;
15194;SDS011;7698;42.478;23.756;2024-01-07T07:46:20;14.32;;;12.93;;
15194;SDS011;7698;42.478;23.756;2024-01-07T07:48:47;12.18;;;10.55;;
15194;SDS011;7698;42.478;23.756;2024-01-07T07:51:16;12.63;;;10.30;;
15194;SDS011;7698;42.478;23.756;2024-01-07T07:53:43;11.88;;;10.63;;
15194;SDS011;7698;42.478;23.756;2024-01-07T07:56:10;11.82;;;10.63;;
15194;SDS011;7698;42.478;23.756;2024-01-07T07:58:36;11.93;;;10.65;;
15194;SDS011;7698;42.478;23.756;2024-01-07T08:01:04;13.30;;;11.93;;
15194;SDS011;7698;42.478;23.756;2024-01-07T08:03:31;11.82;;;10.63;;
15194;SDS011;7698;42.478;23.756;2024-01-07T08:05:58;10.88;;;9.82;;
15194;SDS011;7698;42.478;23.756;2024-01-07T08:08:26;10.80;;;9.48;;
15194;SDS011;7698;42.478;23.756;2024-01-07T08:10:53;13.70;;;12.02;;
15194;SDS011;7698;42.478;23.756;2024-01-07T08:13:20;15.15;;;13.27;;
15194;SDS011;7698;42.478;23.756;2024-01-07T08:15:47;12.10;;;10.90;;
15194;SDS011;7698;42.478;23.756;2024-01-07T08:18:14;10.32;;;9.43;;
15194;SDS011;7698;42.478;23.756;2024-01-07T08:20:41;11.75;;;10.55;;
15194;SDS011;7698;42.478;23.756;2024-01-07T08:23:07;11.20;;;10.20;;
15194;SDS011;7698;42.478;23.756;2024-01-07T08:25:37;10.43;;;9.52;;
15194;SDS011;7698;42.478;23.756;2024-01-07T08:28:04;8.20;;;7.38;;
15194;SDS011;7698;42.478;23.756;2024-01-07T08:30:31;7.90;;;7.20;;
15194;SDS011;7698;42.478;23.756;2024-01-07T08:32:58;8.65;;;7.85;;
15194;SDS011;7698;42.478;23.756;2024-01-07T08:35:25;9.93;;;9.02;;
15194;SDS011;7698;42.478;23.756;2024-01-07T08:37:52;8.98;;;8.07;;
15194;SDS011;7698;42.478;23.756;2024-01-07T08:40:19;9.27;;;7.82;;
15194;SDS011;7698;42.478;23.756;2024-01-07T08:42:48;9.80;;;8.77;;
15194;SDS011;7698;42.478;23.756;2024-01-07T08:45:15;10.63;;;9.73;;
15194;SDS011;7698;42.478;23.756;2024-01-07T08:47:42;10.68;;;9.65;;
15194;SDS011;7698;42.478;23.756;2024-01-07T08:50:09;8.73;;;7.93;;
15194;SDS011;7698;42.478;23.756;2024-01-07T08:52:36;10.15;;;9.15;;
15194;SDS011;7698;42.478;23.756;2024-01-07T08:55:03;9.90;;;9.00;;
15194;SDS011;7698;42.478;23.756;2024-01-07T08:57:31;8.52;;;7.72;;
15194;SDS011;7698;42.478;23.756;2024-01-07T08:59:59;8.88;;;8.07;;
15194;SDS011;7698;42.478;23.756;2024-01-07T09:02:26;11.18;;;9.75;;
15194;SDS011;7698;42.478;23.756;2024-01-07T09:04:53;13.38;;;10.32;;
15194;SDS011;7698;42.478;23.756;2024-01-07T09:07:19;10.48;;;9.55;;
15194;SDS011;7698;42.478;23.756;2024-01-07T09:09:47;10.65;;;9.55;;
15194;SDS011;7698;42.478;23.756;2024-01-07T09:12:13;9.85;;;8.98;;
15194;SDS011;7698;42.478;23.756;2024-01-07T09:14:40;10.15;;;9.05;;
15194;SDS011;7698;42.478;23.756;2024-01-07T09:17:09;8.10;;;7.40;;
15194;SDS011;7698;42.478;23.756;2024-01-07T09:19:37;8.75;;;7.95;;
15194;SDS011;7698;42.478;23.756;2024-01-07T09:22:04;6.82;;;6.22;;
15194;SDS011;7698;42.478;23.756;2024-01-07T09:24:31;7.22;;;6.53;;
15194;SDS011;7698;42.478;23.756;2024-01-07T09:26:58;6.82;;;6.22;;
15194;SDS011;7698;42.478;23.756;2024-01-07T09:29:25;6.55;;;5.95;;
15194;SDS011;7698;42.478;23.756;2024-01-07T09:31:53;6.20;;;5.68;;
15194;SDS011;7698;42.478;23.756;2024-01-07T09:34:21;5.65;;;5.07;;
15194;SDS011;7698;42.478;23.756;2024-01-07T09:36:48;5.63;;;5.13;;
15194;SDS011;7698;42.478;23.756;2024-01-07T09:39:15;23.85;;;20.35;;
15194;SDS011;7698;42.478;23.756;2024-01-07T09:41:42;4.30;;;3.92;;
15194;SDS011;7698;42.478;23.756;2024-01-07T09:44:08;2.85;;;2.55;;
15194;SDS011;7698;42.478;23.756;2024-01-07T09:46:37;3.03;;;2.83;;
15194;SDS011;7698;42.478;23.756;2024-01-07T09:49:03;4.28;;;3.92;;
15194;SDS011;7698;42.478;23.756;2024-01-07T09:51:32;4.55;;;4.15;;
15194;SDS011;7698;42.478;23.756;2024-01-07T09:54:02;4.75;;;4.35;;
15194;SDS011;7698;42.478;23.756;2024-01-07T09:56:34;4.35;;;3.95;;
15194;SDS011;7698;42.478;23.756;2024-01-07T09:59:02;4.50;;;4.15;;
15194;SDS011;7698;42.478;23.756;2024-01-07T10:01:29;4.97;;;4.47;;
15194;SDS011;7698;42.478;23.756;2024-01-07T10:03:56;5.03;;;4.60;;
15194;SDS011;7698;42.478;23.756;2024-01-07T10:06:23;4.47;;;4.10;;
15194;SDS011;7698;42.478;23.756;2024-01-07T10:08:51;6.28;;;5.50;;
15194;SDS011;7698;42.478;23.756;2024-01-07T10:11:18;14.73;;;13.05;;
15194;SDS011;7698;42.478;23.756;2024-01-07T10:13:47;8.40;;;7.60;;
15194;SDS011;7698;42.478;23.756;2024-01-07T10:16:16;5.95;;;5.45;;
15194;SDS011;7698;42.478;23.756;2024-01-07T10:18:43;6.90;;;5.20;;
15194;SDS011;7698;42.478;23.756;2024-01-07T10:21:10;4.45;;;4.05;;
15194;SDS011;7698;42.478;23.756;2024-01-07T10:23:36;3.38;;;3.17;;
15194;SDS011;7698;42.478;23.756;2024-01-07T10:26:04;5.00;;;4.43;;
15194;SDS011;7698;42.478;23.756;2024-01-07T10:28:32;4.78;;;4.30;;
15194;SDS011;7698;42.478;23.756;2024-01-07T10:30:59;4.57;;;3.85;;
15194;SDS011;7698;42.478;23.756;2024-01-07T10:33:25;6.38;;;4.70;;
15194;SDS011;7698;42.478;23.756;2024-01-07T10:35:57;6.20;;;5.20;;
15194;SDS011;7698;42.478;23.756;2024-01-07T10:38:26;5.32;;;4.82;;
15194;SDS011;7698;42.478;23.756;2024-01-07T10:40:53;6.30;;;5.03;;
15194;SDS011;7698;42.478;23.756;2024-01-07T10:43:22;4.68;;;4.25;;
15194;SDS011;7698;42.478;23.756;2024-01-07T10:45:48;4.43;;;4.03;;
15194;SDS011;7698;42.478;23.756;2024-01-07T10:48:17;4.30;;;3.67;;
15194;SDS011;7698;42.478;23.756;2024-01-07T10:50:44;3.45;;;3.15;;
15194;SDS011;7698;42.478;23.756;2024-01-07T10:53:13;3.13;;;2.83;;
15194;SDS011;7698;42.478;23.756;2024-01-07T10:55:40;3.10;;;2.78;;
15194;SDS011;7698;42.478;23.756;2024-01-07T10:58:08;4.35;;;2.95;;
15194;SDS011;7698;42.478;23.756;2024-01-07T11:00:37;4.05;;;3.53;;
15194;SDS011;7698;42.478;23.756;2024-01-07T11:03:07;4.55;;;3.45;;
15194;SDS011;7698;42.478;23.756;2024-01-07T11:05:37;4.10;;;3.80;;
15194;SDS011;7698;42.478;23.756;2024-01-07T11:08:09;4.65;;;3.70;;
15194;SDS011;7698;42.478;23.756;2024-01-07T11:10:39;3.95;;;3.47;;
15194;SDS011;7698;42.478;23.756;2024-01-07T11:13:08;3.53;;;3.22;;
15194;SDS011;7698;42.478;23.756;2024-01-07T11:18:19;5.03;;;4.43;;
15194;SDS011;7698;42.478;23.756;2024-01-07T11:20:47;5.30;;;3.90;;
15194;SDS011;7698;42.478;23.756;2024-01-07T11:23:25;4.20;;;3.90;;
15194;SDS011;7698;42.478;23.756;2024-01-07T11:25:53;5.25;;;4.68;;
15194;SDS011;7698;42.478;23.756;2024-01-07T11:28:24;5.95;;;4.95;;
15194;SDS011;7698;42.478;23.756;2024-01-07T11:31:07;6.32;;;4.97;;
15194;SDS011;7698;42.478;23.756;2024-01-07T11:33:37;4.05;;;3.63;;
15194;SDS011;7698;42.478;23.756;2024-01-07T11:36:05;3.65;;;3.35;;
15194;SDS011;7698;42.478;23.756;2024-01-07T11:38:33;4.50;;;3.92;;
15194;SDS011;7698;42.478;23.756;2024-01-07T11:41:00;5.50;;;4.90;;
15194;SDS011;7698;42.478;23.756;2024-01-07T11:43:28;4.22;;;3.60;;
15194;SDS011;7698;42.478;23.756;2024-01-07T11:45:55;4.85;;;4.40;;
15194;SDS011;7698;42.478;23.756;2024-01-07T11:48:22;3.92;;;3.58;;
15194;SDS011;7698;42.478;23.756;2024-01-07T11:50:50;4.50;;;4.10;;
15194;SDS011;7698;42.478;23.756;2024-01-07T11:53:16;6.70;;;5.32;;
15194;SDS011;7698;42.478;23.756;2024-01-07T11:55:44;4.57;;;4.18;;
15194;SDS011;7698;42.478;23.756;2024-01-07T11:58:10;5.22;;;4.30;;
15194;SDS011;7698;42.478;23.756;2024-01-07T12:00:37;4.50;;;4.10;;
15194;SDS011;7698;42.478;23.756;2024-01-07T12:03:04;4.28;;;3.60;;
15194;SDS011;7698;42.478;23.756;2024-01-07T12:05:31;4.13;;;3.70;;
15194;SDS011;7698;42.478;23.756;2024-01-07T12:07:59;4.40;;;3.75;;
15194;SDS011;7698;42.478;23.756;2024-01-07T12:10:26;4.13;;;3.70;;
15194;SDS011;7698;42.478;23.756;2024-01-07T12:12:54;3.90;;;3.25;;
15194;SDS011;7698;42.478;23.756;2024-01-07T12:15:21;4.20;;;3.80;;
15194;SDS011;7698;42.478;23.756;2024-01-07T12:17:54;3.50;;;3.20;;
15194;SDS011;7698;42.478;23.756;2024-01-07T12:20:21;4.65;;;3.80;;
15194;SDS011;7698;42.478;23.756;2024-01-07T12:22:48;8.38;;;6.82;;
15194;SDS011;7698;42.478;23.756;2024-01-07T12:25:20;5.93;;;5.13;;
15194;SDS011;7698;42.478;23.756;2024-01-07T12:27:47;7.65;;;6.40;;
15194;SDS011;7698;42.478;23.756;2024-01-07T12:30:17;8.10;;;6.75;;
15194;SDS011;7698;42.478;23.756;2024-01-07T12:32:44;5.75;;;5.15;;
15194;SDS011;7698;42.478;23.756;2024-01-07T12:35:11;4.93;;;4.43;;
15194;SDS011;7698;42.478;23.756;2024-01-07T12:37:38;4.85;;;4.40;;
15194;SDS011;7698;42.478;23.756;2024-01-07T12:40:05;4.38;;;3.88;;
15194;SDS011;7698;42.478;23.756;2024-01-07T12:42:35;5.47;;;4.97;;
15194;SDS011;7698;42.478;23.756;2024-01-07T12:45:03;4.35;;;3.95;;
15194;SDS011;7698;42.478;23.756;2024-01-07T12:47:30;3.78;;;3.45;;
15194;SDS011;7698;42.478;23.756;2024-01-07T12:49:56;2.78;;;2.58;;
15194;SDS011;7698;42.478;23.756;2024-01-07T12:52:23;4.65;;;3.47;;
15194;SDS011;7698;42.478;23.756;2024-01-07T12:54:50;5.25;;;4.15;;
15194;SDS011;7698;42.478;23.756;2024-01-07T12:57:17;4.13;;;3.40;;
15194;SDS011;7698;42.478;23.756;2024-01-07T12:59:45;4.38;;;3.45;;
15194;SDS011;7698;42.478;23.756;2024-01-07T13:02:12;3.50;;;3.20;;
15194;SDS011;7698;42.478;23.756;2024-01-07T13:04:39;3.58;;;3.05;;
15194;SDS011;7698;42.478;23.756;2024-01-07T13:07:06;3.10;;;2.88;;
15194;SDS011;7698;42.478;23.756;2024-01-07T13:09:32;3.45;;;3.15;;
15194;SDS011;7698;42.478;23.756;2024-01-07T13:11:59;3.50;;;3.20;;
15194;SDS011;7698;42.478;23.756;2024-01-07T13:14:26;3.70;;;3.40;;
15194;SDS011;7698;42.478;23.756;2024-01-07T13:16:54;5.22;;;4.60;;
15194;SDS011;7698;42.478;23.756;2024-01-07T13:19:21;5.43;;;4.47;;
15194;SDS011;7698;42.478;23.756;2024-01-07T13:21:47;6.65;;;5.30;;
15194;SDS011;7698;42.478;23.756;2024-01-07T13:24:14;7.85;;;5.85;;
15194;SDS011;7698;42.478;23.756;2024-01-07T13:26:41;5.03;;;4.30;;
15194;SDS011;7698;42.478;23.756;2024-01-07T13:29:08;4.40;;;3.50;;
15194;SDS011;7698;42.478;23.756;2024-01-07T13:31:34;4.13;;;3.72;;
15194;SDS011;7698;42.478;23.756;2024-01-07T13:34:02;3.20;;;2.90;;
15194;SDS011;7698;42.478;23.756;2024-01-07T13:36:29;6.20;;;3.92;;
15194;SDS011;7698;42.478;23.756;2024-01-07T13:38:56;4.38;;;3.95;;
15194;SDS011;7698;42.478;23.756;2024-01-07T13:41:23;4.30;;;3.90;;
15194;SDS011;7698;42.478;23.756;2024-01-07T13:43:53;3.28;;;2.97;;
15194;SDS011;7698;42.478;23.756;2024-01-07T13:46:21;4.13;;;3.72;;
15194;SDS011;7698;42.478;23.756;2024-01-07T13:48:48;3.67;;;3.38;;
15194;SDS011;7698;42.478;23.756;2024-01-07T13:51:17;3.47;;;3.17;;
15194;SDS011;7698;42.478;23.756;2024-01-07T13:53:44;4.03;;;2.67;;
15194;SDS011;7698;42.478;23.756;2024-01-07T13:56:11;4.03;;;3.28;;
15194;SDS011;7698;42.478;23.756;2024-01-07T13:58:38;3.47;;;3.17;;
15194;SDS011;7698;42.478;23.756;2024-01-07T14:01:04;3.53;;;2.90;;
15194;SDS011;7698;42.478;23.756;2024-01-07T14:03:31;3.42;;;3.13;;
15194;SDS011;7698;42.478;23.756;2024-01-07T14:05:59;2.45;;;2.25;;
15194;SDS011;7698;42.478;23.756;2024-01-07T14:08:27;2.28;;;1.50;;
15194;SDS011;7698;42.478;23.756;2024-01-07T14:10:54;1.60;;;1.50;;
15194;SDS011;7698;42.478;23.756;2024-01-07T14:13:23;1.83;;;1.10;;
15194;SDS011;7698;42.478;23.756;2024-01-07T14:15:50;1.30;;;1.20;;
15194;SDS011;7698;42.478;23.756;2024-01-07T14:18:16;1.38;;;1.27;;
15194;SDS011;7698;42.478;23.756;2024-01-07T14:20:47;2.75;;;1.17;;
15194;SDS011;7698;42.478;23.756;2024-01-07T14:23:13;3.80;;;1.50;;
15194;SDS011;7698;42.478;23.756;2024-01-07T14:25:42;1.48;;;1.20;;
15194;SDS011;7698;42.478;23.756;2024-01-07T14:28:08;1.60;;;1.30;;
15194;SDS011;7698;42.478;23.756;2024-01-07T14:30:36;1.23;;;1.10;;
15194;SDS011;7698;42.478;23.756;2024-01-07T14:33:03;1.45;;;1.35;;
15194;SDS011;7698;42.478;23.756;2024-01-07T14:35:30;3.15;;;1.40;;
15194;SDS011;7698;42.478;23.756;2024-01-07T14:37:59;2.60;;;1.40;;
15194;SDS011;7698;42.478;23.756;2024-01-07T14:40:27;1.45;;;1.35;;
15194;SDS011;7698;42.478;23.756;2024-01-07T14:42:56;2.70;;;1.88;;
15194;SDS011;7698;42.478;23.756;2024-01-07T14:45:23;1.42;;;1.33;;